Time,TemperatureF,DewpointF,PressureIn,WindDirection,WindDirectionDegrees,WindSpeedMPH,WindSpeedGustMPH,Humidity,HourlyPrecipIn,Conditions,Clouds,dailyrainin,SoftwareType,DateUTC
2013-04-12 00:00:00,63.2,60.5,29.79,NW,310,2.0,10.0,91,1.02,,,0.27,Wunderground v.1.15,2013-04-12 04:00:00,
2013-04-12 00:10:00,62.7,60.3,29.78,North,8,2.0,2.0,92,0.16,,,0.07,Wunderground v.1.15,2013-04-12 04:10:00,
2013-04-12 00:15:00,62.6,60.5,29.77,SSE,153,2.0,2.0,93,0.20,,,0.09,Wunderground v.1.15,2013-04-12 04:15:00,
2013-04-12 00:20:00,62.5,60.4,29.77,NNW,331,2.0,2.0,93,0.15,,,0.10,Wunderground v.1.15,2013-04-12 04:20:00,
2013-04-12 00:25:00,62.5,60.4,29.77,West,263,2.0,5.0,93,0.07,,,0.10,Wunderground v.1.15,2013-04-12 04:25:00,
2013-04-12 00:30:00,62.6,60.8,29.77,NNW,335,2.0,2.0,94,0.04,,,0.10,Wunderground v.1.15,2013-04-12 04:30:00,
2013-04-12 00:40:00,62.7,60.9,29.76,WNW,300,2.0,6.0,94,0.00,,,0.10,Wunderground v.1.15,2013-04-12 04:40:00,
2013-04-12 00:50:00,62.8,61.0,29.76,NW,319,2.0,2.0,94,0.00,,,0.10,Wunderground v.1.15,2013-04-12 04:50:00,
2013-04-12 01:00:00,62.8,61.0,29.75,NE,44,2.0,2.0,94,0.00,,,0.10,Wunderground v.1.15,2013-04-12 05:00:00,
2013-04-12 01:10:00,62.8,60.7,29.74,SE,145,1.0,8.0,93,0.00,,,0.10,Wunderground v.1.15,2013-04-12 05:10:00,
2013-04-12 01:20:00,62.8,60.7,29.73,WNW,293,2.0,2.0,93,0.00,,,0.11,Wunderground v.1.15,2013-04-12 05:20:00,
2013-04-12 01:30:00,62.8,61.0,29.73,WNW,294,1.0,8.0,94,0.09,,,0.12,Wunderground v.1.15,2013-04-12 05:30:00,
2013-04-12 01:40:00,62.8,61.0,29.72,West,267,2.0,2.0,94,0.20,,,0.24,Wunderground v.1.15,2013-04-12 05:40:00,
2013-04-12 01:50:00,62.9,61.4,29.72,SSW,205,3.0,8.0,95,0.22,,,0.29,Wunderground v.1.15,2013-04-12 05:50:00,
2013-04-12 02:00:00,63.0,61.2,29.72,NE,36,3.0,3.0,94,0.05,,,0.29,Wunderground v.1.15,2013-04-12 06:00:00,
2013-04-12 02:10:00,63.2,61.1,29.71,NW,319,3.0,3.0,93,0.00,,,0.29,Wunderground v.1.15,2013-04-12 06:10:00,
2013-04-12 02:30:00,63.1,61.0,29.70,NNE,22,3.0,4.0,93,0.00,,,0.30,Wunderground v.1.15,2013-04-12 06:30:00,
2013-04-12 02:40:00,63.0,61.2,29.69,WNW,294,2.0,9.0,94,0.00,,,0.30,Wunderground v.1.15,2013-04-12 06:40:00,
2013-04-12 02:50:00,63.1,61.0,29.69,NW,316,4.0,4.0,93,0.00,,,0.30,Wunderground v.1.15,2013-04-12 06:50:00,
2013-04-12 03:00:00,63.3,61.2,29.70,WNW,295,4.0,6.0,93,0.00,,,0.31,Wunderground v.1.15,2013-04-12 07:00:00,
2013-04-12 03:10:00,62.9,61.1,29.72,West,280,4.0,13.0,94,0.20,,,0.37,Wunderground v.1.15,2013-04-12 07:10:00,
2013-04-12 03:20:00,62.5,60.4,29.70,West,278,6.0,6.0,93,0.15,,,0.44,Wunderground v.1.15,2013-04-12 07:20:00,
2013-04-12 03:30:00,60.3,58.0,29.71,WNW,298,4.0,13.0,92,0.25,,,0.48,Wunderground v.1.15,2013-04-12 07:30:00,
2013-04-12 03:40:00,58.3,56.3,29.70,WNW,285,5.0,13.0,93,0.44,,,0.54,Wunderground v.1.15,2013-04-12 07:40:00,
2013-04-12 03:50:00,57.3,55.6,29.71,WNW,297,4.0,4.0,94,0.79,,,0.68,Wunderground v.1.15,2013-04-12 07:50:00,
2013-04-12 04:05:00,56.5,55.1,29.72,WNW,298,4.0,13.0,95,1.70,,,0.93,Wunderground v.1.15,2013-04-12 08:05:00,
2013-04-12 04:10:00,56.4,55.0,29.73,WNW,285,4.0,4.0,95,0.42,,,1.00,Wunderground v.1.15,2013-04-12 08:10:00,
2013-04-12 04:20:00,56.1,54.7,29.71,West,270,2.0,2.0,95,0.17,,,1.04,Wunderground v.1.15,2013-04-12 08:20:00,
2013-04-12 04:30:00,56.0,54.6,29.71,NW,311,2.0,3.0,95,0.15,,,1.06,Wunderground v.1.15,2013-04-12 08:30:00,
2013-04-12 04:40:00,55.9,54.5,29.69,West,273,1.0,1.0,95,0.10,,,1.08,Wunderground v.1.15,2013-04-12 08:40:00,
2013-04-12 10:35:00,60.7,58.1,29.72,West,269,5.0,6.0,91,0.00,,,1.20,Wunderground v.1.15,2013-04-12 14:35:00,
2013-04-12 10:40:00,60.7,58.1,29.72,WNW,295,5.0,7.0,91,0.00,,,1.20,Wunderground v.1.15,2013-04-12 14:40:00,
2013-04-12 10:50:00,61.4,58.4,29.72,WNW,300,4.0,4.0,90,0.00,,,1.20,Wunderground v.1.15,2013-04-12 14:50:00,
2013-04-12 11:00:00,62.1,57.5,29.72,West,280,6.0,6.0,85,0.00,,,1.20,Wunderground v.1.15,2013-04-12 15:00:00,
2013-04-12 11:10:00,63.1,58.8,29.73,NNW,330,6.0,13.0,86,0.00,,,1.20,Wunderground v.1.15,2013-04-12 15:10:00,
2013-04-12 11:20:00,63.4,58.1,29.73,NW,307,6.0,13.0,83,0.00,,,1.20,Wunderground v.1.15,2013-04-12 15:20:00,
2013-04-12 11:30:00,63.6,57.7,29.72,WNW,294,6.0,6.0,81,0.00,,,1.20,Wunderground v.1.15,2013-04-12 15:30:00,
2013-04-12 11:40:00,63.3,57.0,29.73,West,281,6.0,6.0,80,0.00,,,1.20,Wunderground v.1.15,2013-04-12 15:40:00,
2013-04-12 11:50:00,63.7,57.4,29.73,NNW,329,5.0,5.0,80,0.00,,,1.20,Wunderground v.1.15,2013-04-12 15:50:00,
2013-04-12 12:00:00,65.0,58.7,29.72,NW,316,5.0,13.0,80,0.00,,,1.20,Wunderground v.1.15,2013-04-12 16:00:00,
2013-04-12 12:10:00,65.5,56.2,29.73,West,262,5.0,9.0,72,0.00,,,1.20,Wunderground v.1.15,2013-04-12 16:10:00,
2013-04-12 12:20:00,64.1,55.6,29.74,West,275,7.0,10.0,74,0.00,,,1.20,Wunderground v.1.15,2013-04-12 16:20:00,
2013-04-12 12:30:00,64.3,55.8,29.73,WNW,290,7.0,10.0,74,0.00,,,1.20,Wunderground v.1.15,2013-04-12 16:30:00,
2013-04-12 12:40:00,65.0,56.5,29.72,WNW,302,7.0,7.0,74,0.00,,,1.20,Wunderground v.1.15,2013-04-12 16:40:00,
2013-04-12 12:50:00,65.4,56.1,29.72,NW,319,7.0,7.0,72,0.00,,,1.20,Wunderground v.1.15,2013-04-12 16:50:00,
2013-04-12 13:00:00,65.8,56.1,29.72,NW,311,7.0,7.0,71,0.00,,,1.20,Wunderground v.1.15,2013-04-12 17:00:00,
2013-04-12 13:10:00,66.9,57.2,29.72,NW,307,5.0,17.0,71,0.00,,,1.20,Wunderground v.1.15,2013-04-12 17:10:00,
2013-04-12 13:20:00,66.6,56.1,29.72,NW,314,5.0,17.0,69,0.00,,,1.20,Wunderground v.1.15,2013-04-12 17:20:00,
2013-04-12 13:30:00,66.3,55.4,29.72,NW,319,5.0,5.0,68,0.00,,,1.20,Wunderground v.1.15,2013-04-12 17:30:00,
2013-04-12 13:40:00,66.7,57.0,29.72,WSW,245,5.0,17.0,71,0.00,,,1.20,Wunderground v.1.15,2013-04-12 17:40:00,
2013-04-12 13:50:00,66.7,55.4,29.72,NNE,26,5.0,5.0,67,0.00,,,1.20,Wunderground v.1.15,2013-04-12 17:50:00,
2013-04-12 14:00:00,68.5,56.7,29.71,WNW,290,3.0,3.0,66,0.00,,,1.20,Wunderground v.1.15,2013-04-12 18:00:00,
2013-04-12 14:10:00,68.3,54.3,29.71,SSE,162,6.0,6.0,61,0.00,,,1.20,Wunderground v.1.15,2013-04-12 18:10:00,
2013-04-12 14:25:00,66.9,54.7,29.72,NW,315,6.0,8.0,65,0.00,,,1.20,Wunderground v.1.15,2013-04-12 18:25:00,
2013-04-12 15:30:00,67.1,52.7,29.71,WNW,293,6.0,18.0,60,0.00,,,1.20,Wunderground v.1.15,2013-04-12 19:30:00,
2013-04-12 15:35:00,66.8,53.4,29.71,WNW,294,6.0,18.0,62,0.00,,,1.20,Wunderground v.1.15,2013-04-12 19:35:00,
2013-04-12 15:40:00,66.5,52.6,29.70,WNW,287,6.0,6.0,61,0.00,,,1.20,Wunderground v.1.15,2013-04-12 19:40:00,
2013-04-12 15:50:00,66.8,50.6,29.70,West,262,6.0,18.0,56,0.00,,,1.20,Wunderground v.1.15,2013-04-12 19:50:00,
2013-04-12 16:00:00,67.1,50.9,29.70,WNW,295,6.0,6.0,56,0.00,,,1.20,Wunderground v.1.15,2013-04-12 20:00:00,
2013-04-12 16:10:00,66.0,48.9,29.70,NW,317,8.0,8.0,54,0.00,,,1.20,Wunderground v.1.15,2013-04-12 20:10:00,
2013-04-12 16:20:00,65.8,48.2,29.71,West,259,7.0,9.0,53,0.00,,,1.20,Wunderground v.1.15,2013-04-12 20:20:00,
2013-04-12 16:30:00,65.4,47.8,29.71,WNW,295,7.0,10.0,53,0.00,,,1.20,Wunderground v.1.15,2013-04-12 20:30:00,
2013-04-12 16:40:00,65.2,46.1,29.71,WNW,287,7.0,7.0,50,0.00,,,1.20,Wunderground v.1.15,2013-04-12 20:40:00,
2013-04-12 16:50:00,65.3,45.6,29.72,WSW,246,6.0,8.0,49,0.00,,,1.20,Wunderground v.1.15,2013-04-12 20:50:00,
2013-04-12 17:00:00,64.5,40.9,29.72,West,266,8.0,12.0,42,0.00,,,1.20,Wunderground v.1.15,2013-04-12 21:00:00,
2013-04-12 18:00:00,63.0,44.1,29.73,WNW,293,6.0,17.0,50,0.00,,,1.20,Wunderground v.1.15,2013-04-12 22:00:00,
2013-04-12 18:10:00,62.9,44.0,29.73,WNW,286,6.0,6.0,50,0.00,,,1.20,Wunderground v.1.15,2013-04-12 22:10:00,
2013-04-12 18:20:00,62.5,44.1,29.73,WNW,302,7.0,7.0,51,0.00,,,1.20,Wunderground v.1.15,2013-04-12 22:20:00,
2013-04-12 18:30:00,62.5,44.6,29.73,SSW,212,4.0,4.0,52,0.00,,,1.20,Wunderground v.1.15,2013-04-12 22:30:00,